sensor_id;sensor_type;location;lat;lon;timestamp;pressure;altitude;pressure_sealevel;temperature;humidity
58385;BME280;44185;47.844;8.966;2024-02-26T00:00:43;62241.28;;;3.30;89.96
58385;BME280;44185;47.844;8.966;2024-02-26T00:03:08;62248.63;;;3.40;82.54
58385;BME280;44185;47.844;8.966;2024-02-26T00:05:34;62265.59;;;3.53;81.46
58385;BME280;44185;47.844;8.966;2024-02-26T00:08:00;62275.19;;;3.65;81.60
58385;BME280;44185;47.844;8.966;2024-02-26T00:10:26;62277.78;;;3.65;81.65
58385;BME280;44185;47.844;8.966;2024-02-26T00:12:52;62283.31;;;3.70;80.76
58385;BME280;44185;47.844;8.966;2024-02-26T00:15:18;62283.31;;;3.70;82.24
58385;BME280;44185;47.844;8.966;2024-02-26T00:17:43;62270.78;;;3.61;82.65
58385;BME280;44185;47.844;8.966;2024-02-26T00:20:10;62278.34;;;3.65;82.25
58385;BME280;44185;47.844;8.966;2024-02-26T00:22:36;62276.66;;;3.64;82.25
58385;BME280;44185;47.844;8.966;2024-02-26T00:25:03;62282.22;;;3.69;81.90
58385;BME280;44185;47.844;8.966;2024-02-26T00:27:30;62279.44;;;3.66;81.73
58385;BME280;44185;47.844;8.966;2024-02-26T00:29:55;62283.31;;;3.70;81.80
58385;BME280;44185;47.844;8.966;2024-02-26T00:32:21;62280.56;;;3.67;81.53
58385;BME280;44185;47.844;8.966;2024-02-26T00:34:46;62279.59;;;3.69;84.16
58385;BME280;44185;47.844;8.966;2024-02-26T00:37:12;62288.28;;;3.75;81.94
58385;BME280;44185;47.844;8.966;2024-02-26T00:39:37;62293.81;;;3.80;81.61
58385;BME280;44185;47.844;8.966;2024-02-26T00:42:03;62291.06;;;3.77;81.61
58385;BME280;44185;47.844;8.966;2024-02-26T00:44:30;62294.38;;;3.81;81.03
58385;BME280;44185;47.844;8.966;2024-02-26T00:46:56;62294.38;;;3.81;80.53
58385;BME280;44185;47.844;8.966;2024-02-26T00:49:21;62302.13;;;3.88;79.35
58385;BME280;44185;47.844;8.966;2024-02-26T00:51:46;62302.13;;;3.88;78.72
58385;BME280;44185;47.844;8.966;2024-02-26T00:54:12;62305.44;;;3.91;79.57
58385;BME280;44185;47.844;8.966;2024-02-26T00:56:38;62298.81;;;3.85;81.59
58385;BME280;44185;47.844;8.966;2024-02-26T00:59:03;62293.28;;;3.80;81.29
58385;BME280;44185;47.844;8.966;2024-02-26T01:01:30;62296.59;;;3.83;81.35
58385;BME280;44185;47.844;8.966;2024-02-26T01:03:56;62293.28;;;3.80;81.79
58385;BME280;44185;47.844;8.966;2024-02-26T01:06:21;62281.66;;;3.69;82.95
58385;BME280;44185;47.844;8.966;2024-02-26T01:08:47;62283.88;;;3.71;83.63
58385;BME280;44185;47.844;8.966;2024-02-26T01:11:12;62282.22;;;3.69;83.34
58385;BME280;44185;47.844;8.966;2024-02-26T01:13:38;62281.66;;;3.69;84.18
58385;BME280;44185;47.844;8.966;2024-02-26T01:16:04;62280.00;;;3.67;85.59
58385;BME280;44185;47.844;8.966;2024-02-26T01:18:31;62278.50;;;3.68;83.91
58385;BME280;44185;47.844;8.966;2024-02-26T01:20:56;62271.13;;;3.59;85.88
58385;BME280;44185;47.844;8.966;2024-02-26T01:23:22;62263.97;;;3.52;88.61
58385;BME280;44185;47.844;8.966;2024-02-26T01:25:47;62269.50;;;3.57;89.05
58385;BME280;44185;47.844;8.966;2024-02-26T01:28:13;62278.34;;;3.65;88.45
58385;BME280;44185;47.844;8.966;2024-02-26T01:30:38;62282.75;;;3.70;86.37
58385;BME280;44185;47.844;8.966;2024-02-26T01:33:04;62282.75;;;3.70;83.67
58385;BME280;44185;47.844;8.966;2024-02-26T01:35:31;62280.16;;;3.70;84.34
58385;BME280;44185;47.844;8.966;2024-02-26T01:37:56;62280.00;;;3.67;86.30
58385;BME280;44185;47.844;8.966;2024-02-26T01:40:22;62283.88;;;3.71;86.56
58385;BME280;44185;47.844;8.966;2024-02-26T01:42:47;62269.50;;;3.57;84.10
58385;BME280;44185;47.844;8.966;2024-02-26T01:45:16;62283.31;;;3.70;82.36
58385;BME280;44185;47.844;8.966;2024-02-26T01:47:42;62284.97;;;3.72;85.21
58385;BME280;44185;47.844;8.966;2024-02-26T01:50:08;62275.91;;;3.68;84.50
58385;BME280;44185;47.844;8.966;2024-02-26T01:52:35;62267.28;;;3.55;83.39
58385;BME280;44185;47.844;8.966;2024-02-26T01:55:01;62265.78;;;3.56;83.89
58385;BME280;44185;47.844;8.966;2024-02-26T01:57:27;62275.56;;;3.63;81.91
58385;BME280;44185;47.844;8.966;2024-02-26T01:59:53;62281.09;;;3.68;84.95
58385;BME280;44185;47.844;8.966;2024-02-26T02:02:19;62285.53;;;3.72;83.88
58385;BME280;44185;47.844;8.966;2024-02-26T02:04:44;62289.97;;;3.76;83.61
58385;BME280;44185;47.844;8.966;2024-02-26T02:07:10;62286.09;;;3.73;84.70
58385;BME280;44185;47.844;8.966;2024-02-26T02:09:37;62272.25;;;3.60;84.78
58385;BME280;44185;47.844;8.966;2024-02-26T02:12:03;62272.25;;;3.60;85.11
58385;BME280;44185;47.844;8.966;2024-02-26T02:14:29;62272.81;;;3.60;84.77
58385;BME280;44185;47.844;8.966;2024-02-26T02:16:55;62280.72;;;3.70;84.75
58385;BME280;44185;47.844;8.966;2024-02-26T02:19:20;62284.44;;;3.71;83.64
58385;BME280;44185;47.844;8.966;2024-02-26T02:21:47;62281.09;;;3.68;84.66
58385;BME280;44185;47.844;8.966;2024-02-26T02:24:12;62281.09;;;3.68;84.66
58385;BME280;44185;47.844;8.966;2024-02-26T02:26:38;62274.63;;;3.64;83.22
58385;BME280;44185;47.844;8.966;2024-02-26T02:29:04;62277.41;;;3.67;85.82
58385;BME280;44185;47.844;8.966;2024-02-26T02:31:30;62282.22;;;3.69;85.34
58385;BME280;44185;47.844;8.966;2024-02-26T02:33:56;62288.84;;;3.75;83.14
58385;BME280;44185;47.844;8.966;2024-02-26T02:36:21;62284.44;;;3.71;83.01
58385;BME280;44185;47.844;8.966;2024-02-26T02:38:51;62288.84;;;3.75;85.32
58385;BME280;44185;47.844;8.966;2024-02-26T02:41:16;62286.09;;;3.73;84.98
58385;BME280;44185;47.844;8.966;2024-02-26T02:43:42;62272.97;;;3.63;85.69
58385;BME280;44185;47.844;8.966;2024-02-26T02:46:07;62280.56;;;3.67;85.76
58385;BME280;44185;47.844;8.966;2024-02-26T02:48:33;62265.06;;;3.53;87.66
58385;BME280;44185;47.844;8.966;2024-02-26T02:50:58;62253.44;;;3.42;88.57
58385;BME280;44185;47.844;8.966;2024-02-26T02:53:24;62259.53;;;3.48;88.66
58385;BME280;44185;47.844;8.966;2024-02-26T02:55:51;62256.22;;;3.44;87.88
58385;BME280;44185;47.844;8.966;2024-02-26T02:58:16;62263.56;;;3.54;89.05
58385;BME280;44185;47.844;8.966;2024-02-26T03:00:41;62265.06;;;3.53;87.58
58385;BME280;44185;47.844;8.966;2024-02-26T03:03:07;62263.00;;;3.53;87.12
58385;BME280;44185;47.844;8.966;2024-02-26T03:05:32;62268.53;;;3.59;86.97
58385;BME280;44185;47.844;8.966;2024-02-26T03:07:58;62271.13;;;3.59;86.87
58385;BME280;44185;47.844;8.966;2024-02-26T03:10:23;62272.25;;;3.60;86.78
58385;BME280;44185;47.844;8.966;2024-02-26T03:12:50;62272.25;;;3.60;86.91
58385;BME280;44185;47.844;8.966;2024-02-26T03:15:16;62277.22;;;3.64;87.60
58385;BME280;44185;47.844;8.966;2024-02-26T03:17:41;62271.13;;;3.59;88.54
58385;BME280;44185;47.844;8.966;2024-02-26T03:20:08;62271.13;;;3.59;88.41
58385;BME280;44185;47.844;8.966;2024-02-26T03:22:34;62270.59;;;3.58;90.04
58385;BME280;44185;47.844;8.966;2024-02-26T03:24:59;62280.56;;;3.67;89.66
58385;BME280;44185;47.844;8.966;2024-02-26T03:27:25;62265.06;;;3.53;89.30
58385;BME280;44185;47.844;8.966;2024-02-26T03:29:52;62266.72;;;3.54;89.96
58385;BME280;44185;47.844;8.966;2024-02-26T03:32:17;62260.63;;;3.49;89.81
58385;BME280;44185;47.844;8.966;2024-02-26T03:34:42;62266.72;;;3.54;90.43
58385;BME280;44185;47.844;8.966;2024-02-26T03:37:08;62270.59;;;3.58;89.57
58385;BME280;44185;47.844;8.966;2024-02-26T03:39:33;62263.00;;;3.53;89.21
58385;BME280;44185;47.844;8.966;2024-02-26T03:41:59;62252.34;;;3.41;91.04
58385;BME280;44185;47.844;8.966;2024-02-26T03:44:24;62261.19;;;3.49;91.33
58385;BME280;44185;47.844;8.966;2024-02-26T03:46:51;62255.66;;;3.44;90.25
58385;BME280;44185;47.844;8.966;2024-02-26T03:49:17;62250.84;;;3.42;88.12
58385;BME280;44185;47.844;8.966;2024-02-26T03:51:42;62276.66;;;3.64;83.63
58385;BME280;44185;47.844;8.966;2024-02-26T03:54:08;62283.88;;;3.71;83.55
58385;BME280;44185;47.844;8.966;2024-02-26T03:56:33;62284.97;;;3.72;84.74
58385;BME280;44185;47.844;8.966;2024-02-26T03:58:59;62284.97;;;3.72;82.96
58385;BME280;44185;47.844;8.966;2024-02-26T04:01:24;62287.19;;;3.74;82.03
58385;BME280;44185;47.844;8.966;2024-02-26T04:03:51;62289.97;;;3.76;83.11
58385;BME280;44185;47.844;8.966;2024-02-26T04:06:17;62290.50;;;3.77;84.01
58385;BME280;44185;47.844;8.966;2024-02-26T04:08:42;62284.44;;;3.71;82.84
58385;BME280;44185;47.844;8.966;2024-02-26T04:11:08;62289.41;;;3.76;82.12
58385;BME280;44185;47.844;8.966;2024-02-26T04:13:34;62296.03;;;3.82;82.18
58385;BME280;44185;47.844;8.966;2024-02-26T04:15:59;62284.59;;;3.74;81.84
58385;BME280;44185;47.844;8.966;2024-02-26T04:18:24;62286.25;;;3.75;81.97
58385;BME280;44185;47.844;8.966;2024-02-26T04:20:51;62288.84;;;3.75;79.71
58385;BME280;44185;47.844;8.966;2024-02-26T04:23:17;62291.22;;;3.80;82.82
58385;BME280;44185;47.844;8.966;2024-02-26T04:25:42;62276.31;;;3.66;82.38
58385;BME280;44185;47.844;8.966;2024-02-26T04:28:08;62266.72;;;3.54;83.50
58385;BME280;44185;47.844;8.966;2024-02-26T04:30:33;62260.06;;;3.48;84.26
58385;BME280;44185;47.844;8.966;2024-02-26T04:32:59;62265.06;;;3.53;85.89
58385;BME280;44185;47.844;8.966;2024-02-26T04:35:24;62265.06;;;3.53;88.53
58385;BME280;44185;47.844;8.966;2024-02-26T04:37:51;62254.00;;;3.42;87.39
58385;BME280;44185;47.844;8.966;2024-02-26T04:40:17;62252.34;;;3.41;86.86
58385;BME280;44185;47.844;8.966;2024-02-26T04:42:42;62249.19;;;3.40;87.72
58385;BME280;44185;47.844;8.966;2024-02-26T04:45:08;62244.59;;;3.33;89.55
58385;BME280;44185;47.844;8.966;2024-02-26T04:47:34;62241.28;;;3.30;90.25
58385;BME280;44185;47.844;8.966;2024-02-26T04:49:59;62241.28;;;3.30;89.90
58385;BME280;44185;47.844;8.966;2024-02-26T04:52:25;62248.47;;;3.37;87.87
58385;BME280;44185;47.844;8.966;2024-02-26T04:54:52;62254.53;;;3.43;86.87
58385;BME280;44185;47.844;8.966;2024-02-26T04:57:17;62260.63;;;3.49;86.85
58385;BME280;44185;47.844;8.966;2024-02-26T04:59:43;62265.25;;;3.55;88.17
58385;BME280;44185;47.844;8.966;2024-02-26T05:02:08;62270.59;;;3.58;88.09
58385;BME280;44185;47.844;8.966;2024-02-26T05:04:34;62276.66;;;3.64;87.79
58385;BME280;44185;47.844;8.966;2024-02-26T05:06:59;62275.03;;;3.62;87.64
58385;BME280;44185;47.844;8.966;2024-02-26T05:09:24;62267.84;;;3.55;88.43
58385;BME280;44185;47.844;8.966;2024-02-26T05:11:51;62265.06;;;3.53;88.72
58385;BME280;44185;47.844;8.966;2024-02-26T05:14:17;62270.03;;;3.58;89.01
58385;BME280;44185;47.844;8.966;2024-02-26T05:16:42;62278.91;;;3.66;89.74
58385;BME280;44185;47.844;8.966;2024-02-26T05:19:08;62276.13;;;3.63;90.06
58385;BME280;44185;47.844;8.966;2024-02-26T05:21:33;62268.38;;;3.56;90.27
58385;BME280;44185;47.844;8.966;2024-02-26T05:23:59;62278.34;;;3.65;91.30
58385;BME280;44185;47.844;8.966;2024-02-26T05:26:24;62272.25;;;3.60;90.82
58385;BME280;44185;47.844;8.966;2024-02-26T05:28:51;62263.97;;;3.52;91.16
58385;BME280;44185;47.844;8.966;2024-02-26T05:31:17;62263.41;;;3.51;92.02
58385;BME280;44185;47.844;8.966;2024-02-26T05:33:43;62263.97;;;3.52;91.75
58385;BME280;44185;47.844;8.966;2024-02-26T05:36:08;62266.72;;;3.54;90.23
58385;BME280;44185;47.844;8.966;2024-02-26T05:38:34;62270.59;;;3.58;86.63
58385;BME280;44185;47.844;8.966;2024-02-26T05:40:59;62270.59;;;3.58;86.26
58385;BME280;44185;47.844;8.966;2024-02-26T05:43:24;62267.84;;;3.55;86.39
58385;BME280;44185;47.844;8.966;2024-02-26T05:45:51;62281.66;;;3.69;87.98
58385;BME280;44185;47.844;8.966;2024-02-26T05:48:17;62276.84;;;3.66;86.01
58385;BME280;44185;47.844;8.966;2024-02-26T05:50:43;62279.44;;;3.66;84.54
58385;BME280;44185;47.844;8.966;2024-02-26T05:53:08;62286.81;;;3.76;84.97
58385;BME280;44185;47.844;8.966;2024-02-26T05:55:34;62282.22;;;3.69;82.47
58385;BME280;44185;47.844;8.966;2024-02-26T05:57:59;62287.38;;;3.76;82.13
58385;BME280;44185;47.844;8.966;2024-02-26T06:00:25;62292.72;;;3.79;82.31
58385;BME280;44185;47.844;8.966;2024-02-26T06:02:51;62297.16;;;3.83;82.80
58385;BME280;44185;47.844;8.966;2024-02-26T06:05:17;62297.72;;;3.84;83.73
58385;BME280;44185;47.844;8.966;2024-02-26T06:07:42;62290.50;;;3.77;84.46
58385;BME280;44185;47.844;8.966;2024-02-26T06:10:08;62287.75;;;3.74;83.28
58385;BME280;44185;47.844;8.966;2024-02-26T06:12:35;62288.84;;;3.75;85.50
58385;BME280;44185;47.844;8.966;2024-02-26T06:15:00;62297.72;;;3.84;83.91
58385;BME280;44185;47.844;8.966;2024-02-26T06:17:26;62311.53;;;3.97;82.13
58385;BME280;44185;47.844;8.966;2024-02-26T06:19:53;62314.31;;;3.99;82.53
58385;BME280;44185;47.844;8.966;2024-02-26T06:22:18;62312.28;;;4.00;82.74
58385;BME280;44185;47.844;8.966;2024-02-26T06:24:43;62314.88;;;4.00;81.82
58385;BME280;44185;47.844;8.966;2024-02-26T06:27:09;62304.91;;;3.91;84.43
58385;BME280;44185;47.844;8.966;2024-02-26T06:29:34;62312.28;;;4.00;84.40
58385;BME280;44185;47.844;8.966;2024-02-26T06:32:00;62322.63;;;4.07;82.98
58385;BME280;44185;47.844;8.966;2024-02-26T06:34:25;62329.81;;;4.14;83.16
58385;BME280;44185;47.844;8.966;2024-02-26T06:36:52;62329.81;;;4.14;83.84
58385;BME280;44185;47.844;8.966;2024-02-26T06:39:17;62335.34;;;4.19;84.13
58385;BME280;44185;47.844;8.966;2024-02-26T06:41:43;62344.19;;;4.28;85.32
58385;BME280;44185;47.844;8.966;2024-02-26T06:44:08;62350.47;;;4.36;83.56
58385;BME280;44185;47.844;8.966;2024-02-26T06:46:34;62344.75;;;4.28;85.77
58385;BME280;44185;47.844;8.966;2024-02-26T06:48:59;62344.19;;;4.28;85.13
58385;BME280;44185;47.844;8.966;2024-02-26T06:51:25;62350.28;;;4.33;84.83
58385;BME280;44185;47.844;8.966;2024-02-26T06:53:51;62345.31;;;4.29;85.75
58385;BME280;44185;47.844;8.966;2024-02-26T06:56:17;62346.97;;;4.30;86.01
58385;BME280;44185;47.844;8.966;2024-02-26T06:58:42;62354.72;;;4.38;85.42
58385;BME280;44185;47.844;8.966;2024-02-26T07:01:08;62356.38;;;4.39;85.63
58385;BME280;44185;47.844;8.966;2024-02-26T07:03:33;62354.91;;;4.40;85.50
58385;BME280;44185;47.844;8.966;2024-02-26T07:05:59;62362.47;;;4.45;86.03
58385;BME280;44185;47.844;8.966;2024-02-26T07:08:25;62376.88;;;4.59;85.78
58385;BME280;44185;47.844;8.966;2024-02-26T07:10:51;62387.00;;;4.71;86.51
58385;BME280;44185;47.844;8.966;2024-02-26T07:13:17;62386.63;;;4.73;83.94
58385;BME280;44185;47.844;8.966;2024-02-26T07:15:42;62401.81;;;4.82;84.65
58385;BME280;44185;47.844;8.966;2024-02-26T07:18:08;62401.41;;;4.84;84.16
58385;BME280;44185;47.844;8.966;2024-02-26T07:20:33;62399.59;;;4.80;87.03
58385;BME280;44185;47.844;8.966;2024-02-26T07:22:59;62397.00;;;4.80;85.85
58385;BME280;44185;47.844;8.966;2024-02-26T07:25:24;62400.28;;;4.83;85.59
58385;BME280;44185;47.844;8.966;2024-02-26T07:27:51;62413.97;;;4.94;83.39
58385;BME280;44185;47.844;8.966;2024-02-26T07:30:17;62414.53;;;4.94;81.27
58385;BME280;44185;47.844;8.966;2024-02-26T07:32:43;62423.97;;;5.03;79.47
58385;BME280;44185;47.844;8.966;2024-02-26T07:35:08;62409.88;;;4.95;81.27
58385;BME280;44185;47.844;8.966;2024-02-26T07:37:33;62404.75;;;4.87;81.84
58385;BME280;44185;47.844;8.966;2024-02-26T07:39:59;62405.66;;;4.86;84.75
58385;BME280;44185;47.844;8.966;2024-02-26T07:42:24;62399.59;;;4.80;83.44
58385;BME280;44185;47.844;8.966;2024-02-26T07:44:52;62400.69;;;4.81;83.22
58385;BME280;44185;47.844;8.966;2024-02-26T07:47:17;62394.75;;;4.78;85.02
58385;BME280;44185;47.844;8.966;2024-02-26T07:49:43;62392.94;;;4.74;84.96
58385;BME280;44185;47.844;8.966;2024-02-26T07:52:08;62397.53;;;4.81;84.95
58385;BME280;44185;47.844;8.966;2024-02-26T07:54:33;62396.25;;;4.77;84.56
58385;BME280;44185;47.844;8.966;2024-02-26T07:56:59;62392.72;;;4.78;83.88
58385;BME280;44185;47.844;8.966;2024-02-26T07:59:24;62399.59;;;4.80;82.70
58385;BME280;44185;47.844;8.966;2024-02-26T08:01:51;62406.94;;;4.89;83.42
58385;BME280;44185;47.844;8.966;2024-02-26T08:04:17;62415.66;;;4.95;83.51
58385;BME280;44185;47.844;8.966;2024-02-26T08:06:42;62415.66;;;4.95;82.76
58385;BME280;44185;47.844;8.966;2024-02-26T08:09:08;62423.41;;;5.03;83.34
58385;BME280;44185;47.844;8.966;2024-02-26T08:11:34;62445.00;;;5.23;81.43
58385;BME280;44185;47.844;8.966;2024-02-26T08:13:59;62467.19;;;5.44;80.97
58385;BME280;44185;47.844;8.966;2024-02-26T08:16:24;62488.81;;;5.64;79.71
58385;BME280;44185;47.844;8.966;2024-02-26T08:18:51;62507.66;;;5.82;79.31
58385;BME280;44185;47.844;8.966;2024-02-26T08:21:17;62520.56;;;5.97;78.11
58385;BME280;44185;47.844;8.966;2024-02-26T08:23:43;62537.06;;;6.10;78.96
58385;BME280;44185;47.844;8.966;2024-02-26T08:26:09;62545.94;;;6.18;79.75
58385;BME280;44185;47.844;8.966;2024-02-26T08:28:34;62552.75;;;6.27;79.50
58385;BME280;44185;47.844;8.966;2024-02-26T08:31:01;62558.31;;;6.32;79.17
58385;BME280;44185;47.844;8.966;2024-02-26T08:33:27;62567.00;;;6.38;79.39
58385;BME280;44185;47.844;8.966;2024-02-26T08:35:54;62565.53;;;6.39;78.85
58385;BME280;44185;47.844;8.966;2024-02-26T08:38:19;62574.38;;;6.48;78.23
58385;BME280;44185;47.844;8.966;2024-02-26T08:40:45;62581.22;;;6.56;78.64
58385;BME280;44185;47.844;8.966;2024-02-26T08:43:10;62571.44;;;6.42;76.68
58385;BME280;44185;47.844;8.966;2024-02-26T08:45:35;62569.94;;;6.43;76.98
58385;BME280;44185;47.844;8.966;2024-02-26T08:48:01;62570.50;;;6.44;76.67
58385;BME280;44185;47.844;8.966;2024-02-26T08:50:26;62567.19;;;6.41;75.91
58385;BME280;44185;47.844;8.966;2024-02-26T08:52:53;62574.38;;;6.48;76.29
58385;BME280;44185;47.844;8.966;2024-02-26T08:55:19;62578.28;;;6.51;76.95
58385;BME280;44185;47.844;8.966;2024-02-26T08:57:44;62580.31;;;6.51;76.48
58385;BME280;44185;47.844;8.966;2024-02-26T09:00:10;62585.50;;;6.58;76.16
58385;BME280;44185;47.844;8.966;2024-02-26T09:02:36;62586.03;;;6.59;76.73
58385;BME280;44185;47.844;8.966;2024-02-26T09:05:01;62588.81;;;6.61;76.71
58385;BME280;44185;47.844;8.966;2024-02-26T09:07:27;62589.22;;;6.59;75.67
58385;BME280;44185;47.844;8.966;2024-02-26T09:09:54;62591.41;;;6.61;75.80
58385;BME280;44185;47.844;8.966;2024-02-26T09:12:19;62606.56;;;6.78;76.28
58385;BME280;44185;47.844;8.966;2024-02-26T09:14:44;62625.06;;;6.98;76.18
58385;BME280;44185;47.844;8.966;2024-02-26T09:17:10;62643.38;;;7.15;72.05
58385;BME280;44185;47.844;8.966;2024-02-26T09:19:35;62654.47;;;7.26;72.54
58385;BME280;44185;47.844;8.966;2024-02-26T09:22:01;62653.91;;;7.25;72.08
58385;BME280;44185;47.844;8.966;2024-02-26T09:24:26;62667.09;;;7.35;71.78
58385;BME280;44185;47.844;8.966;2024-02-26T09:26:53;62676.91;;;7.42;71.45
58385;BME280;44185;47.844;8.966;2024-02-26T09:29:18;62693.19;;;7.60;71.91
58385;BME280;44185;47.844;8.966;2024-02-26T09:31:45;62718.56;;;7.81;72.17
58385;BME280;44185;47.844;8.966;2024-02-26T09:34:10;62734.28;;;7.98;70.65
58385;BME280;44185;47.844;8.966;2024-02-26T09:36:36;62747.06;;;8.10;69.24
58385;BME280;44185;47.844;8.966;2024-02-26T09:39:01;62756.50;;;8.19;69.31
58385;BME280;44185;47.844;8.966;2024-02-26T09:41:28;62754.47;;;8.20;68.65
58385;BME280;44185;47.844;8.966;2024-02-26T09:43:56;62763.91;;;8.29;68.27
58385;BME280;44185;47.844;8.966;2024-02-26T09:46:23;62781.91;;;8.41;65.98
58385;BME280;44185;47.844;8.966;2024-02-26T09:48:49;62799.16;;;8.57;65.12
58385;BME280;44185;47.844;8.966;2024-02-26T09:51:15;62820.06;;;8.82;64.21
58385;BME280;44185;47.844;8.966;2024-02-26T09:53:43;62846.59;;;9.04;63.86
58385;BME280;44185;47.844;8.966;2024-02-26T09:56:09;62854.38;;;9.11;63.38
58385;BME280;44185;47.844;8.966;2024-02-26T09:58:36;62860.09;;;9.19;63.41
58385;BME280;44185;47.844;8.966;2024-02-26T10:01:08;62862.31;;;9.21;63.35
58385;BME280;44185;47.844;8.966;2024-02-26T10:03:39;62858.44;;;9.18;63.09
58385;BME280;44185;47.844;8.966;2024-02-26T10:06:04;62860.81;;;9.22;62.83
58385;BME280;44185;47.844;8.966;2024-02-26T10:08:31;62869.56;;;9.28;62.16
58385;BME280;44185;47.844;8.966;2024-02-26T10:10:57;62876.63;;;9.32;62.03
58385;BME280;44185;47.844;8.966;2024-02-26T10:13:23;62871.78;;;9.30;61.85
58385;BME280;44185;47.844;8.966;2024-02-26T10:15:48;62880.13;;;9.38;61.67
58385;BME280;44185;47.844;8.966;2024-02-26T10:18:15;62880.91;;;9.34;62.13
58385;BME280;44185;47.844;8.966;2024-02-26T10:20:40;62880.13;;;9.38;61.59
58385;BME280;44185;47.844;8.966;2024-02-26T10:23:06;62887.19;;;9.42;63.27
58385;BME280;44185;47.844;8.966;2024-02-26T10:25:31;62879.97;;;9.36;62.41
58385;BME280;44185;47.844;8.966;2024-02-26T10:27:59;62885.53;;;9.41;63.13
58385;BME280;44185;47.844;8.966;2024-02-26T10:30:25;62887.34;;;9.45;62.83
58385;BME280;44185;47.844;8.966;2024-02-26T10:32:51;62901.81;;;9.59;63.28
58385;BME280;44185;47.844;8.966;2024-02-26T10:35:19;62907.38;;;9.64;62.80
58385;BME280;44185;47.844;8.966;2024-02-26T10:37:44;62898.88;;;9.53;64.98
58385;BME280;44185;47.844;8.966;2024-02-26T10:40:10;62881.41;;;9.42;67.00
58385;BME280;44185;47.844;8.966;2024-02-26T10:42:36;62862.16;;;9.19;68.06
58385;BME280;44185;47.844;8.966;2024-02-26T10:45:01;62823.22;;;8.82;64.26
58385;BME280;44185;47.844;8.966;2024-02-26T10:47:27;62806.16;;;8.68;64.51
58385;BME280;44185;47.844;8.966;2024-02-26T10:49:52;62802.28;;;8.65;65.17
58385;BME280;44185;47.844;8.966;2024-02-26T10:52:19;62826.41;;;8.83;65.82
58385;BME280;44185;47.844;8.966;2024-02-26T10:54:47;62799.50;;;8.62;64.44
58385;BME280;44185;47.844;8.966;2024-02-26T10:57:13;62813.78;;;8.73;64.71
58385;BME280;44185;47.844;8.966;2024-02-26T10:59:42;62796.88;;;8.62;63.71
58385;BME280;44185;47.844;8.966;2024-02-26T11:02:10;62797.63;;;8.58;62.84
58385;BME280;44185;47.844;8.966;2024-02-26T11:04:36;62805.59;;;8.68;65.74
58385;BME280;44185;47.844;8.966;2024-02-26T11:07:03;62797.63;;;8.58;64.07
58385;BME280;44185;47.844;8.966;2024-02-26T11:09:31;62806.56;;;8.66;64.77
58385;BME280;44185;47.844;8.966;2024-02-26T11:11:58;62794.31;;;8.55;64.30
58385;BME280;44185;47.844;8.966;2024-02-26T11:14:24;62801.31;;;8.66;64.23
58385;BME280;44185;47.844;8.966;2024-02-26T11:16:51;62810.44;;;8.70;65.06
58385;BME280;44185;47.844;8.966;2024-02-26T11:19:17;62820.44;;;8.79;65.33
58385;BME280;44185;47.844;8.966;2024-02-26T11:21:43;62827.69;;;8.86;64.68
58385;BME280;44185;47.844;8.966;2024-02-26T11:24:11;62837.13;;;8.95;64.68
58385;BME280;44185;47.844;8.966;2024-02-26T11:26:41;62848.41;;;9.08;65.43
58385;BME280;44185;47.844;8.966;2024-02-26T11:29:09;62847.31;;;9.07;63.74
58385;BME280;44185;47.844;8.966;2024-02-26T11:31:37;62843.97;;;9.04;64.02
58385;BME280;44185;47.844;8.966;2024-02-26T11:34:03;62843.97;;;9.04;64.57
58385;BME280;44185;47.844;8.966;2024-02-26T11:36:28;62853.09;;;9.08;63.93
58385;BME280;44185;47.844;8.966;2024-02-26T11:38:55;62832.69;;;8.91;66.37
58385;BME280;44185;47.844;8.966;2024-02-26T11:41:20;62811.56;;;8.71;67.76
58385;BME280;44185;47.844;8.966;2024-02-26T11:43:58;62801.72;;;8.64;66.78
58385;BME280;44185;47.844;8.966;2024-02-26T11:46:28;62794.47;;;8.57;67.32
58385;BME280;44185;47.844;8.966;2024-02-26T11:48:56;62798.78;;;8.59;68.37
58385;BME280;44185;47.844;8.966;2024-02-26T11:51:25;62803.22;;;8.63;67.65
58385;BME280;44185;47.844;8.966;2024-02-26T11:53:50;62788.19;;;8.49;65.59
58385;BME280;44185;47.844;8.966;2024-02-26T11:56:23;62784.88;;;8.46;66.93
58385;BME280;44185;47.844;8.966;2024-02-26T11:58:57;62799.50;;;8.62;66.69
58385;BME280;44185;47.844;8.966;2024-02-26T12:01:50;62825.84;;;8.82;68.11
58385;BME280;44185;47.844;8.966;2024-02-26T12:04:18;62840.47;;;8.98;67.58
58385;BME280;44185;47.844;8.966;2024-02-26T12:06:46;62831.34;;;8.95;68.00
58385;BME280;44185;47.844;8.966;2024-02-26T12:09:12;62848.81;;;9.06;66.27
58385;BME280;44185;47.844;8.966;2024-02-26T12:11:38;62846.34;;;9.09;65.31
58385;BME280;44185;47.844;8.966;2024-02-26T12:14:05;62861.22;;;9.20;63.33
58385;BME280;44185;47.844;8.966;2024-02-26T12:16:38;62865.09;;;9.24;63.65
58385;BME280;44185;47.844;8.966;2024-02-26T12:19:08;62870.13;;;9.29;64.53
58385;BME280;44185;47.844;8.966;2024-02-26T12:21:35;62883.47;;;9.41;64.34
58385;BME280;44185;47.844;8.966;2024-02-26T12:24:09;62881.78;;;9.40;64.05
58385;BME280;44185;47.844;8.966;2024-02-26T12:26:35;62893.06;;;9.53;64.16
58385;BME280;44185;47.844;8.966;2024-02-26T12:29:01;62896.25;;;9.53;62.58
58385;BME280;44185;47.844;8.966;2024-02-26T12:31:28;62915.19;;;9.71;63.40
58385;BME280;44185;47.844;8.966;2024-02-26T12:33:54;62913.34;;;9.67;64.81
58385;BME280;44185;47.844;8.966;2024-02-26T12:36:20;62922.25;;;9.75;63.02
58385;BME280;44185;47.844;8.966;2024-02-26T12:38:46;62924.06;;;9.79;63.77
58385;BME280;44185;47.844;8.966;2024-02-26T12:41:12;62934.66;;;9.89;64.23
58385;BME280;44185;47.844;8.966;2024-02-26T12:43:38;62950.56;;;10.09;63.07
58385;BME280;44185;47.844;8.966;2024-02-26T12:46:04;62974.88;;;10.30;63.23
58385;BME280;44185;47.844;8.966;2024-02-26T12:48:31;62991.97;;;10.43;63.39
58385;BME280;44185;47.844;8.966;2024-02-26T12:50:56;63009.81;;;10.60;62.60
58385;BME280;44185;47.844;8.966;2024-02-26T12:53:22;63002.97;;;10.51;64.12
58385;BME280;44185;47.844;8.966;2024-02-26T12:55:47;63014.84;;;10.65;63.00
58385;BME280;44185;47.844;8.966;2024-02-26T12:58:14;63011.66;;;10.64;63.96
58385;BME280;44185;47.844;8.966;2024-02-26T13:00:39;63013.19;;;10.63;62.02
58385;BME280;44185;47.844;8.966;2024-02-26T13:03:05;63045.88;;;10.92;62.50